Hlavní strana
METAR-TAF:

METAR-TAF

Letiště :

Lakselv, Norsko

zeměpisná šířka: 70-04N, zeměpisná délka: 024-59E, výška: 0 m

Aktuální stav počasí

Zpráva byla vytvořena před 18 minutami, v 08:20 UTC
Jihojihovýchodní vítr 9 kt
Teplota 8°C
Vlhkost vzduchu 71%
Tlak 1018 hPa
Viditelnost 10 km a více
Polojasno ve výšce 2700 ft
Oblačno až skoro zataženo ve výšce 3600 ft
slabý déšť

METAR: ENNA 290820Z 16009KT 9999 -RA SCT027 BKN036 08/03 Q1018 RMK WIND 1800FT 25017KT

Čas: 10:38 (08:38 UTC)

Předpověď počasí

Předpověď platná od 29 v 06 UTC do 30 v 06 UTC
Jihozápadní vítr 8 kt
Viditelnost 10 km a více
Oblačno až skoro zataženo ve výšce 4000 ft
Dočasný
od 29 v 06 UTC do 29 v 12 UTC
Jihojihovýchodní vítr 12 kt
Změna
od 29 v 12 UTC do 29 v 14 UTC
Západní vítr 12 kt
Dočasný
od 29 v 14 UTC do 29 v 24 UTC
Západoseverozápadní vítr 15 kt s nárazy do 25 kt

TAF: ENNA 2906/3006 22008KT 9999 BKN040 TEMPO 2906/2912 16012KT BECMG 2912/2914 28012KT TEMPO 2914/2924 30015G25KT

Stav a předpovědi počasí z více než 4 000 letišť (zprávy METAR a TAF).

Červené a žluté tečky na mapě představují dostupné meteorologické stanice.

Když kurzor umístíte na tečku, zobrazí se název stanice.

Pak kliknutím zobrazíte stav a předpověď počasí.

Chcete-li změnit mapu, kliknutím na zelené tlačítko se znaménkem +mapu přiblížíte, kliknutím na zelené tlačítko se znaménkem – mapu oddálíte a kliknutím na zelené šipky přejdete na sousední mapy.


METAR-TAF: